Wetterdaten: Woche 30.07.18 - 05.08.18 (KW31)
Datum Zeit Temp. Aussen Temp. o. S. +5cm Feuchte Auss Luftdruck Regen Sonnenschein Regendauer Solar Windben Empfang
30.07.2018 00:00 24,5 C 23,2 C 22,2 C 59 % 1011,3 hPa 0,0 l/m 0,00 h 0,00 h 0 W/m 0,1 km/h (0 Bft) 96,99 %
30.07.2018 01:00 23,8 C 22,4 C 21,7 C 64 % 1011,6 hPa 0,0 l/m 0,00 h 0,00 h 0 W/m 0,1 km/h (0 Bft) 99,43 %
30.07.2018 02:00 23,0 C 22,0 C 21,2 C 65 % 1011,8 hPa 0,0 l/m 0,00 h 0,00 h 0 W/m 0,4 km/h (0 Bft) 96,29 %
30.07.2018 03:00 22,5 C 21,2 C 20,6 C 68 % 1011,9 hPa 0,0 l/m 0,00 h 0,00 h 0 W/m 0,0 km/h (0 Bft) 96,51 %
30.07.2018 04:00 21,8 C 20,4 C 20,0 C 72 % 1012,0 hPa 0,0 l/m 0,00 h 0,00 h 0 W/m 0,2 km/h (0 Bft) 99,72 %
30.07.2018 05:00 21,1 C 19,8 C 19,5 C 76 % 1012,2 hPa 0,0 l/m 0,00 h 0,00 h 4 W/m 0,2 km/h (0 Bft) 96,95 %
30.07.2018 06:00 20,5 C 19,5 C 19,0 C 79 % 1012,4 hPa 0,0 l/m 0,00 h 0,00 h 21 W/m 0,2 km/h (0 Bft) 96,29 %
30.07.2018 07:00 20,5 C 21,4 C 20,2 C 79 % 1012,6 hPa 0,0 l/m 0,23 h 0,00 h 82 W/m 5,7 km/h (1 Bft) 99,79 %
30.07.2018 08:00 22,7 C 24,0 C 22,1 C 69 % 1012,7 hPa 0,0 l/m 0,30 h 0,00 h 177 W/m 7,5 km/h (2 Bft) 96,45 %
30.07.2018 09:00 24,1 C 25,0 C 22,9 C 65 % 1013,0 hPa 0,0 l/m 0,50 h 0,00 h 268 W/m 9,0 km/h (2 Bft) 96,40 %
30.07.2018 10:00 26,0 C 29,9 C 24,5 C 60 % 1013,1 hPa 0,0 l/m 0,87 h 0,00 h 527 W/m 8,8 km/h (2 Bft) 99,29 %
30.07.2018 11:00 28,8 C 26,7 C 21,2 C 59 % 1013,0 hPa 0,0 l/m 1,00 h 0,00 h 676 W/m 9,2 km/h (2 Bft) 96,80 %
30.07.2018 12:00 28,3 C 22,9 C 19,4 C 61 % 1012,7 hPa 0,0 l/m 0,50 h 0,00 h 429 W/m 10,9 km/h (2 Bft) 96,79 %
30.07.2018 13:00 28,1 C 22,1 C 19,8 C 63 % 1012,5 hPa 0,0 l/m 1,00 h 0,00 h 789 W/m 9,3 km/h (2 Bft) 97,97 %
30.07.2018 14:00 27,3 C 21,0 C 19,9 C 66 % 1012,1 hPa 0,0 l/m 1,00 h 0,00 h 740 W/m 10,2 km/h (2 Bft) 98,38 %
30.07.2018 15:00 26,9 C 20,8 C 19,8 C 68 % 1011,7 hPa 0,0 l/m 0,47 h 0,00 h 459 W/m 7,2 km/h (2 Bft) 98,87 %
30.07.2018 16:00 27,2 C 22,9 C 21,1 C 64 % 1011,4 hPa 0,0 l/m 0,68 h 0,00 h 487 W/m 7,1 km/h (2 Bft) 95,41 %
30.07.2018 17:00 30,4 C 31,7 C 27,5 C 50 % 1011,1 hPa 0,0 l/m 0,90 h 0,00 h 550 W/m 6,4 km/h (2 Bft) 99,72 %
30.07.2018 18:00 32,9 C 32,8 C 29,9 C 44 % 1011,0 hPa 0,0 l/m 1,00 h 0,00 h 434 W/m 7,7 km/h (2 Bft) 99,71 %
30.07.2018 19:00 32,7 C 31,6 C 28,6 C 43 % 1011,2 hPa 0,0 l/m 0,13 h 0,00 h 82 W/m 4,8 km/h (1 Bft) 95,95 %
30.07.2018 20:00 31,4 C 29,8 C 26,3 C 46 % 1011,3 hPa 0,0 l/m 0,00 h 0,00 h 30 W/m 3,6 km/h (1 Bft) 98,06 %
30.07.2018 21:00 29,3 C 26,7 C 23,2 C 53 % 1011,8 hPa 0,0 l/m 0,00 h 0,00 h 8 W/m 0,3 km/h (0 Bft) 96,87 %
30.07.2018 22:00 26,6 C 24,4 C 22,3 C 58 % 1012,3 hPa 0,0 l/m 0,00 h 0,00 h 0 W/m 2,0 km/h (1 Bft) 97,51 %
30.07.2018 23:00 25,2 C 23,5 C 21,8 C 61 % 1012,8 hPa 0,0 l/m 0,00 h 0,00 h 0 W/m 2,0 km/h (1 Bft) 98,09 %
31.07.2018 00:00 24,0 C 22,7 C 22,1 C 69 % 1013,1 hPa 0,0 l/m 0,00 h 0,00 h 0 W/m 6,9 km/h (2 Bft) 95,79 %
31.07.2018 01:00 22,9 C 21,1 C 20,9 C 78 % 1013,1 hPa 0,0 l/m 0,00 h 0,00 h 0 W/m 5,1 km/h (1 Bft) 99,26 %
31.07.2018 02:00 21,6 C 20,0 C 20,1 C 82 % 1012,9 hPa 0,0 l/m 0,00 h 0,00 h 0 W/m 0,8 km/h (0 Bft) 96,90 %
31.07.2018 03:00 21,0 C 19,5 C 20,0 C 85 % 1012,8 hPa 0,0 l/m 0,00 h 0,00 h 0 W/m 0,3 km/h (0 Bft) 96,09 %
31.07.2018 04:00 20,6 C 19,4 C 19,5 C 86 % 1012,6 hPa 0,0 l/m 0,00 h 0,00 h 0 W/m 0,1 km/h (0 Bft) 99,91 %
31.07.2018 05:00 20,2 C 18,7 C 18,7 C 87 % 1012,6 hPa 0,0 l/m 0,00 h 0,00 h 4 W/m 0,0 km/h (0 Bft) 97,39 %
31.07.2018 06:00 19,6 C 18,5 C 18,3 C 89 % 1012,7 hPa 0,0 l/m 0,00 h 0,00 h 16 W/m 0,0 km/h (0 Bft) 95,50 %
31.07.2018 07:00 19,6 C 20,0 C 19,2 C 91 % 1012,9 hPa 0,0 l/m 0,00 h 0,00 h 55 W/m 0,0 km/h (0 Bft) 99,80 %
31.07.2018 08:00 20,8 C 22,6 C 20,8 C 92 % 1013,2 hPa 0,0 l/m 0,10 h 0,00 h 144 W/m 3,1 km/h (1 Bft) 96,71 %
31.07.2018 09:00 23,0 C 24,8 C 22,3 C 85 % 1013,2 hPa 0,0 l/m 0,40 h 0,00 h 265 W/m 7,8 km/h (2 Bft) 96,68 %
31.07.2018 10:00 25,7 C 30,5 C 24,8 C 75 % 1013,4 hPa 0,0 l/m 0,93 h 0,00 h 605 W/m 7,2 km/h (2 Bft) 99,36 %
31.07.2018 11:00 28,8 C 30,7 C 26,7 C 61 % 1013,6 hPa 0,0 l/m 0,23 h 0,00 h 326 W/m 7,2 km/h (2 Bft) 96,11 %
31.07.2018 12:00 30,4 C 34,4 C 27,8 C 55 % 1014,0 hPa 0,0 l/m 0,47 h 0,00 h 487 W/m 9,2 km/h (2 Bft) 97,71 %
31.07.2018 13:00 30,4 C 31,3 C 28,2 C 54 % 1014,2 hPa 0,0 l/m 0,40 h 0,00 h 434 W/m 10,9 km/h (2 Bft) 97,52 %
31.07.2018 14:00 30,7 C 30,8 C 28,5 C 53 % 1014,3 hPa 0,0 l/m 0,83 h 0,00 h 761 W/m 10,1 km/h (2 Bft) 96,80 %
31.07.2018 15:00 30,6 C 30,7 C 28,5 C 51 % 1014,5 hPa 0,0 l/m 0,83 h 0,00 h 725 W/m 10,1 km/h (2 Bft) 98,50 %
31.07.2018 16:00 31,3 C 33,7 C 29,0 C 46 % 1014,5 hPa 0,0 l/m 1,00 h 0,00 h 724 W/m 10,9 km/h (2 Bft) 95,65 %
31.07.2018 17:00 31,2 C 31,7 C 28,9 C 43 % 1014,6 hPa 0,0 l/m 1,00 h 0,00 h 621 W/m 12,4 km/h (3 Bft) 96,94 %
31.07.2018 18:00 30,7 C 30,2 C 28,5 C 44 % 1014,7 hPa 0,0 l/m 1,00 h 0,00 h 468 W/m 11,6 km/h (2 Bft) 98,65 %
31.07.2018 19:00 29,2 C 27,8 C 26,7 C 50 % 1015,2 hPa 0,0 l/m 0,13 h 0,00 h 96 W/m 12,4 km/h (3 Bft) 98,09 %
31.07.2018 20:00 26,9 C 25,5 C 25,0 C 57 % 1015,7 hPa 0,0 l/m 0,27 h 0,00 h 38 W/m 11,2 km/h (2 Bft) 97,37 %
31.07.2018 21:00 25,3 C 23,6 C 23,5 C 61 % 1016,2 hPa 0,0 l/m 0,10 h 0,00 h 9 W/m 9,0 km/h (2 Bft) 97,44 %
31.07.2018 22:00 23,9 C 22,5 C 22,6 C 63 % 1017,0 hPa 0,0 l/m 0,00 h 0,00 h 0 W/m 5,9 km/h (2 Bft) 98,03 %
31.07.2018 23:00 22,9 C 21,5 C 21,6 C 64 % 1017,5 hPa 0,0 l/m 0,00 h 0,00 h 0 W/m 6,5 km/h (2 Bft) 98,17 %
01.08.2018 00:00 21,9 C 20,4 C 20,7 C 66 % 1017,9 hPa 0,0 l/m 0,00 h 0,00 h 0 W/m 5,8 km/h (2 Bft) 95,58 %
01.08.2018 01:00 21,0 C 20,0 C 20,0 C 69 % 1018,0 hPa 0,0 l/m 0,00 h 0,00 h 0 W/m 5,7 km/h (1 Bft) 98,28 %
01.08.2018 02:00 20,6 C 19,2 C 19,6 C 71 % 1018,1 hPa 0,0 l/m 0,00 h 0,00 h 0 W/m 3,8 km/h (1 Bft) 99,79 %
01.08.2018 03:00 20,0 C 18,7 C 19,0 C 72 % 1017,9 hPa 0,0 l/m 0,00 h 0,00 h 0 W/m 2,2 km/h (1 Bft) 94,25 %
01.08.2018 04:00 19,3 C 17,8 C 18,4 C 75 % 1017,9 hPa 0,0 l/m 0,00 h 0,00 h 0 W/m 1,3 km/h (1 Bft) 98,36 %
01.08.2018 05:00 18,4 C 16,5 C 17,1 C 78 % 1018,0 hPa 0,0 l/m 0,00 h 0,00 h 3 W/m 0,1 km/h (0 Bft) 98,61 %
01.08.2018 06:00 17,6 C 16,4 C 16,8 C 82 % 1018,2 hPa 0,0 l/m 0,00 h 0,00 h 18 W/m 0,2 km/h (0 Bft) 96,99 %
01.08.2018 07:00 17,6 C 18,3 C 17,9 C 86 % 1018,3 hPa 0,0 l/m 0,00 h 0,00 h 56 W/m 1,2 km/h (1 Bft) 97,00 %
01.08.2018 08:00 19,0 C 21,3 C 19,9 C 84 % 1018,4 hPa 0,0 l/m 0,20 h 0,00 h 143 W/m 5,1 km/h (1 Bft) 97,87 %
01.08.2018 09:00 21,8 C 24,1 C 22,0 C 73 % 1018,5 hPa 0,0 l/m 0,77 h 0,00 h 324 W/m 7,6 km/h (2 Bft) 97,53 %
01.08.2018 10:00 24,1 C 27,6 C 23,2 C 65 % 1018,7 hPa 0,0 l/m 0,47 h 0,00 h 400 W/m 6,6 km/h (2 Bft) 98,29 %
01.08.2018 11:00 26,7 C 30,8 C 24,9 C 56 % 1018,8 hPa 0,0 l/m 1,00 h 0,00 h 513 W/m 7,5 km/h (2 Bft) 96,73 %
01.08.2018 12:00 27,4 C 27,5 C 23,6 C 56 % 1018,8 hPa 0,0 l/m 0,33 h 0,00 h 367 W/m 6,7 km/h (2 Bft) 97,06 %
01.08.2018 13:00 26,4 C 21,0 C 18,8 C 60 % 1018,4 hPa 0,0 l/m 0,63 h 0,00 h 413 W/m 6,5 km/h (2 Bft) 98,87 %
01.08.2018 14:00 26,5 C 24,0 C 23,4 C 59 % 1018,3 hPa 0,0 l/m 0,77 h 0,00 h 473 W/m 7,4 km/h (2 Bft) 95,98 %
01.08.2018 15:00 27,8 C 29,3 C 26,0 C 55 % 1018,2 hPa 0,0 l/m 0,97 h 0,00 h 474 W/m 6,5 km/h (2 Bft) 97,31 %
01.08.2018 16:00 28,8 C 31,0 C 26,8 C 54 % 1017,8 hPa 0,0 l/m 1,00 h 0,00 h 498 W/m 5,4 km/h (1 Bft) 98,99 %
01.08.2018 17:00 29,4 C 30,0 C 26,9 C 52 % 1017,5 hPa 0,0 l/m 0,93 h 0,00 h 368 W/m 5,4 km/h (1 Bft) 95,87 %
01.08.2018 18:00 29,4 C 29,8 C 27,3 C 52 % 1017,1 hPa 0,0 l/m 1,00 h 0,00 h 339 W/m 5,4 km/h (1 Bft) 98,66 %
01.08.2018 19:00 29,3 C 28,7 C 26,0 C 52 % 1017,0 hPa 0,0 l/m 0,93 h 0,00 h 150 W/m 4,4 km/h (1 Bft) 96,37 %
01.08.2018 20:00 28,3 C 26,9 C 25,6 C 51 % 1017,3 hPa 0,0 l/m 0,03 h 0,00 h 41 W/m 7,4 km/h (2 Bft) 97,36 %
01.08.2018 21:00 26,8 C 24,8 C 24,0 C 55 % 1018,1 hPa 0,0 l/m 0,00 h 0,00 h 9 W/m 5,3 km/h (1 Bft) 99,11 %
01.08.2018 22:00 25,3 C 23,6 C 23,0 C 58 % 1018,5 hPa 0,0 l/m 0,00 h 0,00 h 0 W/m 5,3 km/h (1 Bft) 96,66 %
01.08.2018 23:00 24,0 C 22,0 C 21,6 C 62 % 1018,7 hPa 0,0 l/m 0,00 h 0,00 h 0 W/m 2,3 km/h (1 Bft) 97,46 %
02.08.2018 00:00 22,6 C 20,7 C 20,6 C 66 % 1018,9 hPa 0,0 l/m 0,00 h 0,00 h 0 W/m 0,3 km/h (0 Bft) 97,28 %
02.08.2018 01:00 21,4 C 19,8 C 19,4 C 69 % 1018,7 hPa 0,0 l/m 0,00 h 0,00 h 0 W/m 0,0 km/h (0 Bft) 96,95 %
02.08.2018 02:00 20,5 C 18,8 C 18,9 C 72 % 1018,7 hPa 0,0 l/m 0,00 h 0,00 h 0 W/m 0,0 km/h (0 Bft) 98,77 %
02.08.2018 03:00 19,6 C 18,1 C 18,0 C 74 % 1018,7 hPa 0,0 l/m 0,00 h 0,00 h 0 W/m 0,0 km/h (0 Bft) 96,87 %
02.08.2018 04:00 18,8 C 17,4 C 17,2 C 76 % 1018,8 hPa 0,0 l/m 0,00 h 0,00 h 0 W/m 0,0 km/h (0 Bft) 96,08 %
02.08.2018 05:00 18,0 C 16,5 C 16,8 C 79 % 1019,0 hPa 0,0 l/m 0,00 h 0,00 h 2 W/m 0,0 km/h (0 Bft) 99,39 %
02.08.2018 06:00 17,4 C 16,8 C 16,7 C 82 % 1019,4 hPa 0,0 l/m 0,00 h 0,00 h 26 W/m 0,0 km/h (0 Bft) 97,35 %
02.08.2018 07:00 17,6 C 18,7 C 17,6 C 85 % 1019,6 hPa 0,0 l/m 0,00 h 0,00 h 71 W/m 0,0 km/h (0 Bft) 96,09 %
02.08.2018 08:00 19,1 C 21,3 C 19,3 C 82 % 1020,0 hPa 0,0 l/m 0,20 h 0,00 h 123 W/m 2,4 km/h (1 Bft) 99,13 %
02.08.2018 09:00 21,9 C 24,6 C 21,4 C 72 % 1020,1 hPa 0,0 l/m 0,93 h 0,00 h 387 W/m 3,0 km/h (1 Bft) 96,61 %
02.08.2018 10:00 25,3 C 30,5 C 23,9 C 64 % 1020,1 hPa 0,0 l/m 1,00 h 0,00 h 539 W/m 5,0 km/h (1 Bft) 97,51 %
02.08.2018 11:00 29,4 C 38,3 C 25,6 C 56 % 1020,2 hPa 0,0 l/m 1,00 h 0,00 h 649 W/m 6,6 km/h (2 Bft) 97,32 %
02.08.2018 12:00 32,3 C 39,0 C 27,3 C 48 % 1020,1 hPa 0,0 l/m 1,00 h 0,00 h 723 W/m 7,5 km/h (2 Bft) 96,38 %
02.08.2018 13:00 32,4 C 35,3 C 28,2 C 47 % 1019,9 hPa 0,0 l/m 1,00 h 0,00 h 760 W/m 7,0 km/h (2 Bft) 99,58 %
02.08.2018 14:00 31,9 C 32,1 C 29,2 C 48 % 1019,6 hPa 0,0 l/m 1,00 h 0,00 h 805 W/m 8,2 km/h (2 Bft) 96,42 %
02.08.2018 15:00 32,3 C 32,4 C 29,8 C 45 % 1019,2 hPa 0,0 l/m 1,00 h 0,00 h 770 W/m 9,9 km/h (2 Bft) 96,22 %
02.08.2018 16:00 32,6 C 34,9 C 30,1 C 44 % 1019,0 hPa 0,0 l/m 1,00 h 0,00 h 681 W/m 10,4 km/h (2 Bft) 99,71 %
02.08.2018 17:00 32,7 C 33,5 C 30,2 C 44 % 1018,9 hPa 0,0 l/m 1,00 h 0,00 h 561 W/m 9,7 km/h (2 Bft) 97,86 %
02.08.2018 18:00 32,5 C 32,0 C 30,3 C 44 % 1018,8 hPa 0,0 l/m 1,00 h 0,00 h 396 W/m 9,0 km/h (2 Bft) 96,87 %
02.08.2018 19:00 31,5 C 30,4 C 28,8 C 44 % 1018,8 hPa 0,0 l/m 0,13 h 0,00 h 88 W/m 8,9 km/h (2 Bft) 95,71 %
02.08.2018 20:00 30,0 C 28,2 C 27,3 C 47 % 1018,8 hPa 0,0 l/m 0,00 h 0,00 h 32 W/m 6,3 km/h (2 Bft) 98,01 %
02.08.2018 21:00 28,1 C 25,8 C 24,4 C 53 % 1019,2 hPa 0,0 l/m 0,00 h 0,00 h 8 W/m 2,8 km/h (1 Bft) 99,93 %
02.08.2018 22:00 26,2 C 24,4 C 23,6 C 57 % 1019,7 hPa 0,0 l/m 0,00 h 0,00 h 0 W/m 4,7 km/h (1 Bft) 95,20 %
02.08.2018 23:00 25,1 C 23,6 C 23,5 C 62 % 1020,2 hPa 0,0 l/m 0,00 h 0,00 h 0 W/m 7,7 km/h (2 Bft) 97,58 %
03.08.2018 00:00 24,2 C 22,8 C 22,8 C 65 % 1020,1 hPa 0,0 l/m 0,00 h 0,00 h 0 W/m 5,5 km/h (1 Bft) 99,69 %
03.08.2018 01:00 23,4 C 21,6 C 21,8 C 68 % 1020,1 hPa 0,0 l/m 0,00 h 0,00 h 0 W/m 3,8 km/h (1 Bft) 95,67 %
03.08.2018 02:00 22,3 C 20,6 C 20,9 C 72 % 1019,7 hPa 0,0 l/m 0,00 h 0,00 h 0 W/m 2,7 km/h (1 Bft) 97,29 %
03.08.2018 03:00 21,4 C 20,0 C 20,1 C 74 % 1019,6 hPa 0,0 l/m 0,00 h 0,00 h 0 W/m 1,2 km/h (1 Bft) 99,64 %
03.08.2018 04:00 20,7 C 19,2 C 19,6 C 76 % 1019,5 hPa 0,0 l/m 0,00 h 0,00 h 0 W/m 1,5 km/h (1 Bft) 95,73 %
03.08.2018 05:00 19,8 C 18,1 C 18,7 C 79 % 1019,6 hPa 0,0 l/m 0,00 h 0,00 h 0 W/m 0,6 km/h (0 Bft) 97,31 %
03.08.2018 06:00 19,1 C 17,8 C 18,3 C 82 % 1019,6 hPa 0,0 l/m 0,00 h 0,00 h 16 W/m 0,2 km/h (0 Bft) 99,05 %
03.08.2018 07:00 18,8 C 18,9 C 18,8 C 84 % 1019,7 hPa 0,0 l/m 0,00 h 0,00 h 42 W/m 1,0 km/h (0 Bft) 95,58 %
03.08.2018 08:00 19,6 C 21,4 C 20,4 C 84 % 1019,8 hPa 0,0 l/m 0,13 h 0,00 h 99 W/m 3,6 km/h (1 Bft) 99,22 %
03.08.2018 09:00 22,2 C 25,0 C 22,4 C 78 % 1019,8 hPa 0,0 l/m 1,00 h 0,00 h 391 W/m 2,8 km/h (1 Bft) 96,59 %
03.08.2018 10:00 25,8 C 31,7 C 24,5 C 68 % 1019,6 hPa 0,0 l/m 1,00 h 0,00 h 535 W/m 5,0 km/h (1 Bft) 96,72 %
03.08.2018 11:00 30,6 C 39,6 C 26,7 C 57 % 1019,2 hPa 0,0 l/m 1,00 h 0,00 h 655 W/m 6,1 km/h (2 Bft) 99,57 %
03.08.2018 12:00 33,9 C 41,3 C 28,6 C 50 % 1018,7 hPa 0,0 l/m 1,00 h 0,00 h 588 W/m 5,8 km/h (2 Bft) 97,84 %
03.08.2018 13:00 34,6 C 37,2 C 30,2 C 47 % 1018,2 hPa 0,0 l/m 1,00 h 0,00 h 778 W/m 7,9 km/h (2 Bft) 96,59 %
03.08.2018 14:00 34,1 C 33,7 C 30,9 C 46 % 1017,7 hPa 0,0 l/m 1,00 h 0,00 h 778 W/m 6,8 km/h (2 Bft) 98,84 %
03.08.2018 15:00 34,0 C 34,3 C 31,2 C 46 % 1017,2 hPa 0,0 l/m 0,97 h 0,00 h 711 W/m 7,5 km/h (2 Bft) 95,96 %
03.08.2018 16:00 34,4 C 36,6 C 31,8 C 44 % 1016,6 hPa 0,0 l/m 1,00 h 0,00 h 649 W/m 8,4 km/h (2 Bft) 97,57 %
03.08.2018 17:00 34,4 C 35,1 C 32,0 C 43 % 1016,1 hPa 0,0 l/m 1,00 h 0,00 h 533 W/m 8,0 km/h (2 Bft) 97,66 %
03.08.2018 18:00 34,2 C 33,2 C 31,6 C 43 % 1015,8 hPa 0,0 l/m 1,00 h 0,00 h 385 W/m 10,9 km/h (2 Bft) 97,17 %
03.08.2018 19:00 32,5 C 28,1 C 25,7 C 45 % 1015,8 hPa 0,0 l/m 0,10 h 0,00 h 87 W/m 11,8 km/h (2 Bft) 97,79 %
03.08.2018 20:00 30,9 C 29,3 C 27,5 C 48 % 1015,8 hPa 0,0 l/m 0,00 h 0,00 h 35 W/m 7,1 km/h (2 Bft) 96,51 %
03.08.2018 21:00 29,3 C 27,1 C 25,4 C 52 % 1016,0 hPa 0,0 l/m 0,00 h 0,00 h 9 W/m 3,6 km/h (1 Bft) 96,73 %
03.08.2018 22:00 28,0 C 26,8 C 25,8 C 54 % 1016,4 hPa 0,0 l/m 0,00 h 0,00 h 0 W/m 6,9 km/h (2 Bft) 99,43 %
03.08.2018 23:00 27,5 C 26,2 C 25,5 C 52 % 1016,5 hPa 0,0 l/m 0,00 h 0,00 h 0 W/m 5,2 km/h (1 Bft) 96,87 %
04.08.2018 00:00 26,7 C 25,1 C 24,5 C 54 % 1016,4 hPa 0,0 l/m 0,00 h 0,00 h 0 W/m 3,4 km/h (1 Bft) 96,31 %
04.08.2018 01:00 25,9 C 24,1 C 23,5 C 59 % 1016,2 hPa 0,0 l/m 0,00 h 0,00 h 0 W/m 1,6 km/h (1 Bft) 99,37 %
04.08.2018 02:00 24,7 C 23,1 C 22,8 C 64 % 1016,3 hPa 0,0 l/m 0,00 h 0,00 h 0 W/m 4,0 km/h (1 Bft) 97,42 %
04.08.2018 03:00 23,8 C 22,6 C 22,4 C 66 % 1016,2 hPa 0,0 l/m 0,00 h 0,00 h 0 W/m 6,4 km/h (2 Bft) 96,06 %
04.08.2018 04:00 22,9 C 21,2 C 21,4 C 68 % 1015,9 hPa 0,0 l/m 0,00 h 0,00 h 0 W/m 3,0 km/h (1 Bft) 97,96 %
04.08.2018 05:00 21,8 C 20,0 C 20,3 C 72 % 1015,8 hPa 0,0 l/m 0,00 h 0,00 h 4 W/m 1,6 km/h (1 Bft) 98,00 %
04.08.2018 06:00 21,0 C 20,0 C 20,0 C 75 % 1016,1 hPa 0,0 l/m 0,00 h 0,00 h 19 W/m 1,3 km/h (1 Bft) 97,62 %
04.08.2018 07:00 20,9 C 21,0 C 20,6 C 76 % 1016,3 hPa 0,0 l/m 0,00 h 0,00 h 76 W/m 1,5 km/h (1 Bft) 96,25 %
04.08.2018 08:00 21,7 C 22,5 C 21,3 C 74 % 1016,6 hPa 0,0 l/m 0,07 h 0,00 h 136 W/m 5,7 km/h (1 Bft) 98,43 %
04.08.2018 09:00 23,0 C 24,3 C 22,4 C 70 % 1016,8 hPa 0,0 l/m 0,63 h 0,00 h 291 W/m 6,1 km/h (2 Bft) 98,51 %
04.08.2018 10:00 25,4 C 30,7 C 24,6 C 62 % 1017,0 hPa 0,0 l/m 1,00 h 0,00 h 544 W/m 8,0 km/h (2 Bft) 95,96 %
04.08.2018 11:00 29,6 C 37,5 C 26,6 C 50 % 1017,2 hPa 0,0 l/m 1,00 h 0,00 h 674 W/m 11,6 km/h (2 Bft) 98,47 %
04.08.2018 12:00 31,8 C 38,2 C 28,0 C 46 % 1017,2 hPa 0,0 l/m 1,00 h 0,00 h 675 W/m 11,3 km/h (2 Bft) 98,56 %
04.08.2018 13:00 32,2 C 35,9 C 28,9 C 44 % 1016,9 hPa 0,0 l/m 1,00 h 0,00 h 792 W/m 10,8 km/h (2 Bft) 98,24 %
04.08.2018 14:00 32,0 C 31,7 C 29,4 C 45 % 1016,6 hPa 0,0 l/m 1,00 h 0,00 h 814 W/m 12,0 km/h (2 Bft) 95,95 %
04.08.2018 15:00 32,2 C 32,3 C 29,9 C 46 % 1016,3 hPa 0,0 l/m 1,00 h 0,00 h 758 W/m 14,4 km/h (3 Bft) 97,38 %
04.08.2018 16:00 32,5 C 34,7 C 30,0 C 47 % 1016,1 hPa 0,0 l/m 1,00 h 0,00 h 663 W/m 14,0 km/h (3 Bft) 99,58 %
04.08.2018 17:00 32,3 C 32,6 C 29,9 C 47 % 1016,0 hPa 0,0 l/m 0,97 h 0,00 h 500 W/m 13,4 km/h (3 Bft) 98,08 %
04.08.2018 18:00 31,6 C 30,8 C 29,5 C 48 % 1016,1 hPa 0,0 l/m 0,90 h 0,00 h 292 W/m 11,7 km/h (2 Bft) 94,47 %
04.08.2018 19:00 29,8 C 28,5 C 27,7 C 55 % 1016,3 hPa 0,0 l/m 0,00 h 0,00 h 84 W/m 16,1 km/h (3 Bft) 99,36 %
04.08.2018 20:00 27,8 C 23,6 C 23,4 C 60 % 1017,0 hPa 0,0 l/m 0,43 h 0,00 h 48 W/m 16,4 km/h (3 Bft) 98,72 %
04.08.2018 21:00 25,0 C 19,0 C 18,8 C 69 % 1017,7 hPa 0,0 l/m 0,00 h 0,00 h 7 W/m 12,3 km/h (3 Bft) 94,76 %
04.08.2018 22:00 23,3 C 18,9 C 18,5 C 76 % 1018,3 hPa 0,0 l/m 0,00 h 0,00 h 0 W/m 9,9 km/h (2 Bft) 98,94 %
04.08.2018 23:00 22,4 C 19,1 C 20,1 C 79 % 1018,5 hPa 0,0 l/m 0,00 h 0,00 h 0 W/m 9,1 km/h (2 Bft) 97,74 %
05.08.2018 00:00 21,8 C 20,4 C 20,5 C 82 % 1018,8 hPa 0,0 l/m 0,00 h 0,00 h 0 W/m 9,1 km/h (2 Bft) 97,81 %
05.08.2018 01:00 21,1 C 19,7 C 19,7 C 85 % 1019,1 hPa 0,0 l/m 0,00 h 0,00 h 0 W/m 8,5 km/h (2 Bft) 97,51 %
05.08.2018 02:00 20,1 C 18,8 C 19,0 C 86 % 1019,3 hPa 0,0 l/m 0,00 h 0,00 h 0 W/m 7,2 km/h (2 Bft) 96,44 %
05.08.2018 03:00 19,7 C 18,8 C 18,7 C 88 % 1019,4 hPa 0,0 l/m 0,00 h 0,00 h 0 W/m 7,8 km/h (2 Bft) 98,65 %
05.08.2018 04:00 19,1 C 17,9 C 18,0 C 90 % 1019,5 hPa 0,0 l/m 0,00 h 0,00 h 0 W/m 6,7 km/h (2 Bft) 98,71 %
05.08.2018 05:00 18,5 C 17,3 C 17,6 C 92 % 1019,7 hPa 0,0 l/m 0,00 h 0,00 h 0 W/m 6,2 km/h (2 Bft) 94,60 %
05.08.2018 06:00 18,1 C 17,0 C 17,2 C 93 % 1020,0 hPa 0,0 l/m 0,00 h 0,00 h 17 W/m 1,8 km/h (1 Bft) 98,94 %
05.08.2018 07:00 17,9 C 17,7 C 17,4 C 94 % 1020,4 hPa 0,0 l/m 0,07 h 0,00 h 65 W/m 4,4 km/h (1 Bft) 99,64 %
05.08.2018 08:00 18,7 C 19,7 C 18,5 C 94 % 1020,7 hPa 0,0 l/m 0,10 h 0,00 h 143 W/m 7,5 km/h (2 Bft) 95,18 %
05.08.2018 09:00 20,1 C 21,8 C 19,8 C 88 % 1020,8 hPa 0,0 l/m 0,83 h 0,00 h 400 W/m 8,5 km/h (2 Bft) 98,31 %
05.08.2018 10:00 21,7 C 25,4 C 20,6 C 79 % 1020,9 hPa 0,0 l/m 0,73 h 0,00 h 460 W/m 8,7 km/h (2 Bft) 98,58 %
05.08.2018 11:00 24,2 C 30,4 C 21,9 C 68 % 1020,8 hPa 0,0 l/m 0,70 h 0,00 h 535 W/m 10,1 km/h (2 Bft) 96,34 %
05.08.2018 12:00 26,2 C 32,0 C 23,1 C 59 % 1020,6 hPa 0,0 l/m 0,57 h 0,00 h 470 W/m 9,8 km/h (2 Bft) 97,44 %
05.08.2018 13:00 27,1 C 30,9 C 24,4 C 54 % 1020,2 hPa 0,0 l/m 1,00 h 0,00 h 817 W/m 9,3 km/h (2 Bft) 97,94 %
05.08.2018 14:00 27,1 C 26,9 C 25,0 C 52 % 1020,0 hPa 0,0 l/m 1,00 h 0,00 h 829 W/m 11,1 km/h (2 Bft) 98,51 %
05.08.2018 15:00 27,5 C 27,6 C 25,5 C 50 % 1019,5 hPa 0,0 l/m 1,00 h 0,00 h 790 W/m 11,7 km/h (2 Bft) 94,74 %
05.08.2018 16:00 28,2 C 30,8 C 25,6 C 48 % 1019,0 hPa 0,0 l/m 1,00 h 0,00 h 705 W/m 11,4 km/h (2 Bft) 98,79 %
05.08.2018 17:00 28,4 C 29,1 C 26,0 C 47 % 1018,6 hPa 0,0 l/m 1,00 h 0,00 h 584 W/m 11,1 km/h (2 Bft) 99,79 %
05.08.2018 18:00 28,3 C 27,8 C 26,2 C 47 % 1018,2 hPa 0,0 l/m 0,77 h 0,00 h 358 W/m 10,2 km/h (2 Bft) 95,73 %
05.08.2018 19:00 27,4 C 25,7 C 24,0 C 49 % 1017,9 hPa 0,0 l/m 0,00 h 0,00 h 53 W/m 9,2 km/h (2 Bft) 95,68 %
05.08.2018 20:00 25,1 C 18,4 C 16,8 C 56 % 1017,7 hPa 0,0 l/m 0,00 h 0,00 h 21 W/m 7,8 km/h (2 Bft) 99,79 %
05.08.2018 21:00 23,1 C 20,4 C 17,8 C 59 % 1017,8 hPa 0,0 l/m 0,00 h 0,00 h 7 W/m 3,7 km/h (1 Bft) 96,94 %
05.08.2018 22:00 22,2 C 19,8 C 19,1 C 62 % 1017,8 hPa 0,0 l/m 0,00 h 0,00 h 0 W/m 0,7 km/h (0 Bft) 95,88 %
05.08.2018 23:00 20,8 C 18,9 C 18,3 C 65 % 1017,8 hPa 0,0 l/m 0,00 h 0,00 h 0 W/m 0,7 km/h (0 Bft) 98,79 %
Min-Datum _ 01.08.18 01.08.18 02.08.18 03.08.18 30.07.18 - - - - 30.07.18 30.07.18
_ Min-Zeit 06:56 05:44 06:18 16:40 18:10 - - - - 00:00 16:24
Minimum _ 17,3 C 16,1 C 16,1 C 41 % 1010,9 hPa - - - - 0,0 km/h (0 Bft) 66,67 %
Max-Datum _ 03.08.18 03.08.18 03.08.18 05.08.18 05.08.18 30.07.18 30.07.18 30.07.18 31.07.18 04.08.18 30.07.18
_ Max-Zeit 13:16 12:24 16:12 07:48 10:04 00:00 15:20 00:00 13:42 19:10 01:02
Maximum _ 34,8 C 43,3 C 32,2 C 95 % 1021,0 hPa 0,0 l/m 0,08 h 0,00 h 1021 W/m 31,5 km/h
NW (5 Bft)
100,00 %
Durchschnitt _ 25,5 C 25,3 C 23,2 C 64 % 1016,8 hPa #0,0 l/m #64:33 h #0 min. 356 W/m 6,0 km/h (2 Bft) 97,54 %
© 2018 W. Hausmann